Hamilton, KS (66853)

7:47 AM CDT on October 21, 2014 (GMT -0500)
T-K Weather Station West Hartford, Kansas | Change Station
CLOSE
Current Station
Personal Weather Station
Location: Hartford, KS
Elevation: 1129 ft
Nearby Weather Stations

Elev 1129 ft 38.28 °N, 96.05 °W | Updated 13 minutes ago

Clear
Clear
40.5 °F
Feels Like 40 °F
N
0.0
Wind Variable Wind from SSW

Today
High -- | Low -- °F
--% Chance of Precip.
Yesterday
High -- | Low -- °F
Precip. -- in
7:39 AM 6:38 PM
Waning Crescent, 6% visible
Pressure 30.10 in
Visibility 10.0 miles
Clouds Clear
Windchill 40 °F
Dew Point 40 °F
Humidity 99%
Rainfall 0.00 in
Snow Depth Not available.
UV 0 out of 12
Pollen 3.60 out of 12
Air Quality Not available.
Flu Activity No Activity
METAR KEMP 211153Z AUTO 00000KT 10SM CLR 07/07 A3010 RMK AO2 SLP192 T00720067 10106 20072 53003

More Conditions Fewer Conditions

Pressure 30.10 in
Visibility 10.0 miles
Clouds Clear
Windchill 40 °F
Dew Point 40 °F
Humidity 99%
Rainfall 0.00 in
Snow Depth Not available.
UV 0 out of 12
Pollen 3.60 out of 12
Air Quality Not available.
Flu Activity No Activity
METAR KEMP 211153Z AUTO 00000KT 10SM CLR 07/07 A3010 RMK AO2 SLP192 T00720067 10106 20072 53003

More Conditions Fewer Conditions

10-Day Weather Forecast

Almanac

Astronomy

Oct. 21, 2014 Rise Set
Actual Time 7:39 AM CDT 6:38 PM CDT
Civil Twilight 7:12 AM CDT 7:05 PM CDT
Nautical Twilight 6:41 AM CDT 7:36 PM CDT
Astronomical Twilight 6:11 AM CDT 8:06 PM CDT
Moon 5:26 AM CDT 5:31 PM CDT
Length of Visible Light 11h 53m
Length of Day
10h 59m
Tomorrow will be 2m 18s shorter.
Waning Crescent, 6% of the Moon is Illuminated
Today
Waning Crescent
Oct 23
New
Oct 30
First Quarter
Nov 6
Full
Nov 14
Last Quarter

Today's Extremes

State Highs State Lows

Community

WunderPhotos

Upload Photos

1,763,649 photos uploaded!

Nearby

Snow Depth

Station Depth Elevation
No new snow has been reported.

Earthquake Activity

City Distance Mag. Time & Date
Anthony, Kansas 113 miles 3.0 6:55 AM CDT
2014-10-21
Stillwater, Oklahoma 133 miles 2.5 11:26 PM CDT
2014-10-20
Medford, Oklahoma 126 miles 3.2 7:46 PM CDT
2014-10-20
Anthony, Kansas 114 miles 2.6 6:30 PM CDT
2014-10-20
Minimum magnitude displayed is 2.5.

Coastal Water Temperatures

Place Temperature
No Stations Reporting

Nearby Weather Stations